Impacts TAF Board
For situational awareness. Not to be used for flight planning purposes.
IDs:

KLAX - Los Angeles Intl, CA, US

Issued at 2025 UTC 20 Sep 2018
Updated at 2039 UTC 20 Sep 2018
Potential Impact None Slight Moderate High
Time<<21/21Z 21/22Z 21/23Z 22/00Z 22/01Z 22/02Z 22/03Z 22/04Z 22/05Z 22/06Z 22/07Z 22/08Z 22/09Z
Type PRVL PRVL PRVL
VIS >6 >6 >6
CIG -- -- --
Cover SKC SKC SKC
FltCat VFR VFR VFR
WX -- -- --
WDir 260 260 260
WSpd 12 12 12
WGst -- -- --
Raw TAF
KLAX 202025Z 2020/2124 25009KT P6SM FEW018 FEW040
  FM210400 VRB03KT P6SM SKC
  FM210800 VRB03KT P6SM OVC010
  FM211700 24006KT P6SM SCT015
  FM212000 26012KT P6SM SKC


METAR Board
Radar Display
Forecast Discussion
For situational awareness. Not to be used for flight planning purposes.